This is the latest recevied weather packets stored in our database for station/object M0CJS. If no packets are shown the sender has not sent any weather packets the latest 10 day(s).
| Time | Temp. | Humidity | Pressure | Rain* | Wind** | Luminosity | Snow |
|---|---|---|---|---|---|---|---|
| 1777634136 | 22.78° C | 51% | 1021.4 hPa | 0 mm | - | - | - |
| 1777628716 | 21.11° C | 48% | 1021.9 hPa | 0 mm | - | - | - |
| 1777627536 | 20.56° C | 48% | 1022 hPa | 0 mm | - | - | - |
| 1777626916 | 20° C | 49% | 1022 hPa | 0 mm | - | - | - |
| 1777622716 | 17.22° C | 57% | 1021.9 hPa | 0 mm | - | - | - |
| 1777619116 | 13.33° C | 63% | 1021.9 hPa | 0 mm | - | - | - |
| 1777618516 | 12.78° C | 64% | 1021.8 hPa | 0 mm | - | - | - |
| 1777617316 | 11.67° C | 66% | 1021.8 hPa | 0 mm | - | - | - |
| 1777616715 | 11.67° C | 68% | 1022 hPa | 0 mm | - | - | - |
| 1777614918 | 9.44° C | 73% | 1021.9 hPa | 0 mm | - | - | - |
| 1777613717 | 7.78° C | 77% | 1021.8 hPa | 0 mm | - | - | - |
| 1777603517 | 7.22° C | 73% | 1022 hPa | 0 mm | - | - | - |
| 1777602337 | 7.22° C | 72% | 1022 hPa | 0 mm | - | - | - |
| 1777601717 | 7.22° C | 72% | 1022 hPa | 0 mm | - | - | - |
| 1777601117 | 7.78° C | 71% | 1022 hPa | 0 mm | - | - | - |
| 1777598117 | 8.89° C | 66% | 1022.5 hPa | 0 mm | - | - | - |
| 1777596937 | 8.89° C | 65% | 1022.7 hPa | 0 mm | - | - | - |
| 1777591517 | 10° C | 62% | 1023.2 hPa | 0 mm | - | - | - |
| 1777590916 | 10° C | 61% | 1023.3 hPa | 0 mm | - | - | - |
| 1777588517 | 10.56° C | 60% | 1023.2 hPa | 0 mm | - | - | - |
| 1777581916 | 12.78° C | 51% | 1023.1 hPa | 0 mm | - | - | - |
| 1777581317 | 13.33° C | 51% | 1023.1 hPa | 0 mm | - | - | - |
| 1777580116 | 13.33° C | 50% | 1023.1 hPa | 0 mm | - | - | - |
| 1777578336 | 14.44° C | 50% | 1023 hPa | 0 mm | - | - | - |
| 1777576516 | 15.56° C | 46% | 1022.9 hPa | 0 mm | - | - | - |
* Rain latest hour (hover to see other rain measurements)
** Current wind speed in m/s (hover to see current wind gust speed)